createdAt,value
2022-08-21T00:01:53.164Z,17.40
2022-08-21T00:04:29.241Z,17.30
2022-08-21T00:07:03.026Z,17.30
2022-08-21T00:09:36.222Z,17.20
2022-08-21T00:12:09.660Z,17.20
2022-08-21T00:14:42.734Z,17.20
2022-08-21T00:17:18.856Z,17.10
2022-08-21T00:19:51.905Z,17.10
2022-08-21T00:22:24.821Z,17.00
2022-08-21T00:24:57.906Z,17.00
2022-08-21T00:27:30.774Z,16.90
2022-08-21T00:30:06.187Z,16.90
2022-08-21T00:32:40.487Z,16.80
2022-08-21T00:35:17.854Z,16.80
2022-08-21T00:37:50.793Z,16.80
2022-08-21T00:40:40.680Z,16.80
2022-08-21T00:43:16.174Z,16.80
2022-08-21T00:45:49.827Z,16.80
2022-08-21T00:48:23.666Z,16.80
2022-08-21T00:51:02.721Z,16.70
2022-08-21T00:53:40.056Z,16.70
2022-08-21T00:56:14.445Z,16.50
2022-08-21T00:58:48.380Z,16.50
2022-08-21T01:01:26.711Z,16.30
2022-08-21T01:04:00.234Z,16.30
2022-08-21T01:06:33.455Z,16.30
2022-08-21T01:09:06.380Z,16.20
2022-08-21T01:11:39.493Z,16.20
2022-08-21T01:14:13.899Z,16.30
2022-08-21T01:16:49.536Z,16.20
2022-08-21T01:19:23.818Z,16.10
2022-08-21T01:21:57.114Z,16.10
2022-08-21T01:24:30.076Z,16.10
2022-08-21T01:27:03.418Z,16.00
2022-08-21T01:29:46.260Z,16.10
2022-08-21T01:32:21.438Z,16.00
2022-08-21T01:34:54.723Z,15.90
2022-08-21T01:37:27.947Z,16.00
2022-08-21T01:40:00.949Z,15.90
2022-08-21T01:42:34.174Z,15.90
2022-08-21T01:45:08.915Z,15.90
2022-08-21T01:47:42.219Z,15.90
2022-08-21T01:50:20.400Z,15.90
2022-08-21T01:52:53.496Z,15.80
2022-08-21T01:55:26.744Z,15.80
2022-08-21T01:58:00.865Z,15.80
2022-08-21T02:00:34.159Z,15.80
2022-08-21T02:03:07.237Z,15.80
2022-08-21T02:05:40.166Z,15.70
2022-08-21T02:08:13.915Z,15.80
2022-08-21T02:10:49.121Z,15.80
2022-08-21T02:13:22.793Z,15.80
2022-08-21T02:15:55.832Z,15.70
2022-08-21T02:18:28.897Z,15.70
2022-08-21T02:21:02.239Z,15.70
2022-08-21T02:23:35.751Z,15.60
2022-08-21T02:26:09.854Z,15.60
2022-08-21T02:28:43.531Z,15.60
2022-08-21T02:31:16.681Z,15.60
2022-08-21T02:33:49.730Z,15.60
2022-08-21T02:36:22.706Z,15.60
2022-08-21T02:38:55.797Z,15.70
2022-08-21T02:41:28.674Z,15.60
2022-08-21T02:44:01.597Z,15.60
2022-08-21T02:46:34.737Z,15.60
2022-08-21T02:49:07.639Z,15.60
2022-08-21T02:51:41.004Z,15.50
2022-08-21T02:54:13.996Z,15.50
2022-08-21T02:56:46.932Z,15.50
2022-08-21T02:59:20.125Z,15.50
2022-08-21T03:01:53.630Z,15.50
2022-08-21T03:04:26.710Z,15.50
2022-08-21T03:06:59.623Z,15.50
2022-08-21T03:09:32.519Z,15.40
2022-08-21T03:12:05.788Z,15.40
2022-08-21T03:14:39.622Z,15.40
2022-08-21T03:19:46.173Z,14.80
2022-08-21T03:22:19.112Z,14.70
2022-08-21T03:24:52.906Z,14.70
2022-08-21T03:27:27.602Z,14.70
2022-08-21T03:30:04.574Z,14.70
2022-08-21T03:32:37.596Z,14.70
2022-08-21T03:35:10.955Z,14.70
2022-08-21T03:37:44.845Z,14.60
2022-08-21T03:40:21.432Z,14.60
2022-08-21T03:42:54.575Z,14.60
2022-08-21T03:45:28.567Z,14.60
2022-08-21T03:48:04.478Z,14.60
2022-08-21T03:50:41.525Z,14.70
2022-08-21T03:53:17.539Z,14.70
2022-08-21T03:55:53.695Z,14.80
2022-08-21T03:58:28.952Z,14.70
2022-08-21T04:01:03.429Z,14.60
2022-08-21T04:03:38.295Z,14.70
2022-08-21T04:06:11.253Z,14.70
2022-08-21T04:08:44.211Z,14.70
2022-08-21T04:11:17.299Z,14.70
2022-08-21T04:13:50.367Z,14.60
2022-08-21T04:16:23.516Z,14.70
2022-08-21T04:18:56.437Z,14.60
2022-08-21T04:21:30.442Z,14.50
2022-08-21T04:24:03.684Z,14.50
2022-08-21T04:26:37.966Z,14.50
2022-08-21T04:29:10.956Z,14.50
2022-08-21T04:31:44.725Z,14.50
2022-08-21T04:34:17.848Z,14.50
2022-08-21T04:36:50.809Z,14.30
2022-08-21T04:39:25.205Z,14.20
2022-08-21T04:42:02.899Z,14.20
2022-08-21T04:44:35.876Z,14.20
2022-08-21T04:47:09.059Z,14.30
2022-08-21T04:49:42.030Z,14.20
2022-08-21T04:52:18.517Z,14.20
2022-08-21T04:54:54.911Z,14.30
2022-08-21T04:57:48.160Z,14.40
2022-08-21T05:00:25.405Z,14.30
2022-08-21T05:03:00.422Z,14.30
2022-08-21T05:05:33.837Z,14.30
2022-08-21T05:08:09.188Z,14.30
2022-08-21T05:10:43.239Z,14.30
2022-08-21T05:13:17.038Z,14.30
2022-08-21T05:15:50.095Z,14.20
2022-08-21T05:18:23.221Z,14.30
2022-08-21T05:20:56.244Z,14.30
2022-08-21T05:38:50.397Z,14.70
2022-08-21T05:41:23.591Z,14.80
2022-08-21T05:43:56.592Z,14.80
2022-08-21T05:46:29.606Z,14.90
2022-08-21T05:49:02.860Z,14.90
2022-08-21T05:51:36.256Z,15.00
2022-08-21T05:54:09.302Z,14.90
2022-08-21T05:56:45.489Z,15.00
2022-08-21T05:59:19.251Z,15.10
2022-08-21T06:01:53.768Z,15.20
2022-08-21T06:04:27.294Z,15.30
2022-08-21T06:07:00.367Z,15.40
2022-08-21T06:09:34.308Z,15.70
2022-08-21T06:12:11.154Z,15.80
2022-08-21T06:14:44.153Z,16.00
2022-08-21T06:17:17.339Z,16.20
2022-08-21T06:19:55.169Z,16.40
2022-08-21T06:22:28.238Z,16.60
2022-08-21T06:25:01.201Z,16.90
2022-08-21T06:27:34.216Z,17.10
2022-08-21T06:30:09.016Z,17.30
2022-08-21T06:32:42.465Z,17.60
2022-08-21T06:35:15.477Z,17.80
2022-08-21T06:37:48.548Z,18.00
2022-08-21T06:40:21.732Z,18.10
2022-08-21T06:42:54.923Z,18.20
2022-08-21T06:45:32.258Z,18.20
2022-08-21T06:48:07.908Z,18.40
2022-08-21T06:50:41.477Z,18.60
2022-08-21T06:53:16.909Z,18.70
2022-08-21T06:55:50.044Z,18.90
2022-08-21T06:58:23.288Z,19.00
2022-08-21T07:01:00.800Z,19.20
2022-08-21T07:03:38.108Z,19.40
2022-08-21T07:06:11.963Z,19.50
2022-08-21T07:08:45.045Z,19.60
2022-08-21T07:11:25.481Z,19.80
2022-08-21T07:13:59.382Z,19.90
2022-08-21T07:16:32.389Z,20.00
2022-08-21T07:19:05.807Z,20.20
2022-08-21T07:21:38.964Z,20.40
2022-08-21T07:24:13.430Z,20.70
2022-08-21T07:26:46.485Z,20.90
2022-08-21T07:29:19.664Z,21.00
2022-08-21T07:31:52.767Z,21.30
2022-08-21T07:34:25.994Z,21.60
2022-08-21T07:36:59.693Z,21.80
2022-08-21T07:39:39.549Z,21.90
2022-08-21T07:42:12.665Z,22.00
2022-08-21T07:44:45.774Z,22.10
2022-08-21T07:47:29.582Z,22.30
2022-08-21T07:50:14.514Z,22.50
2022-08-21T07:52:48.577Z,22.60
2022-08-21T07:55:23.162Z,22.70
2022-08-21T07:57:56.630Z,22.90
2022-08-21T08:00:31.931Z,23.00
2022-08-21T08:03:05.134Z,23.20
2022-08-21T08:05:40.138Z,23.30
2022-08-21T08:08:13.020Z,23.30
2022-08-21T08:10:46.500Z,23.30
2022-08-21T08:13:19.392Z,23.40
2022-08-21T08:15:52.818Z,23.50
2022-08-21T08:18:25.757Z,23.60
2022-08-21T08:20:58.675Z,23.80
2022-08-21T08:23:32.791Z,23.90
2022-08-21T08:26:06.603Z,24.10
2022-08-21T08:28:39.688Z,24.10
2022-08-21T08:31:12.692Z,24.20
2022-08-21T08:33:45.900Z,24.20
2022-08-21T08:36:20.077Z,24.20
2022-08-21T08:38:53.070Z,24.20
2022-08-21T08:41:30.857Z,24.20
2022-08-21T08:44:06.846Z,24.40
2022-08-21T08:46:51.214Z,24.50
2022-08-21T08:49:55.432Z,24.50
2022-08-21T08:52:31.760Z,24.70
2022-08-21T08:55:10.094Z,24.80
2022-08-21T08:57:49.925Z,24.80
2022-08-21T09:00:25.412Z,24.90
2022-08-21T09:03:02.039Z,25.00
2022-08-21T09:06:08.603Z,25.10
2022-08-21T09:10:03.613Z,25.10
2022-08-21T09:13:07.089Z,25.20
2022-08-21T09:22:02.179Z,25.20
2022-08-21T09:37:00.510Z,25.20
2022-08-21T09:39:48.236Z,25.10
2022-08-21T09:42:29.908Z,25.00
2022-08-21T09:45:17.369Z,24.90
2022-08-21T09:51:21.057Z,24.60
2022-08-21T09:54:13.360Z,24.60
2022-08-21T09:57:21.325Z,24.70
2022-08-21T09:59:58.056Z,24.80
2022-08-21T10:02:39.373Z,24.80
2022-08-21T10:05:26.214Z,24.80
2022-08-21T10:08:05.242Z,24.80
2022-08-21T10:10:41.174Z,24.70
2022-08-21T10:13:31.400Z,24.70
2022-08-21T10:16:29.524Z,24.80
2022-08-21T10:19:31.893Z,25.00
2022-08-21T10:22:10.525Z,25.20
2022-08-21T10:25:13.135Z,25.20
2022-08-21T10:28:02.376Z,25.10
2022-08-21T10:31:01.184Z,24.90
2022-08-21T10:33:57.993Z,24.90
2022-08-21T10:37:10.698Z,24.80
2022-08-21T10:40:10.850Z,24.80
2022-08-21T10:43:01.300Z,24.80
2022-08-21T10:46:03.672Z,24.80
2022-08-21T10:48:52.051Z,25.00
2022-08-21T10:51:29.927Z,25.40
2022-08-21T10:54:38.326Z,25.70
2022-08-21T10:57:32.095Z,25.70
2022-08-21T11:00:24.393Z,25.70
2022-08-21T11:03:26.389Z,25.80
2022-08-21T11:06:10.668Z,25.70
2022-08-21T11:08:55.666Z,25.80
2022-08-21T11:11:35.845Z,26.10
2022-08-21T11:14:27.333Z,26.20
2022-08-21T11:17:09.080Z,26.40
2022-08-21T11:20:11.576Z,26.60
2022-08-21T11:23:00.013Z,26.80
2022-08-21T11:25:45.271Z,26.90
2022-08-21T11:28:29.128Z,27.10
2022-08-21T11:31:19.770Z,27.30
2022-08-21T11:34:13.879Z,27.70
2022-08-21T11:37:06.106Z,28.20
2022-08-21T11:39:59.232Z,28.50
2022-08-21T11:42:42.566Z,28.80
2022-08-21T11:45:32.478Z,28.90
2022-08-21T11:48:44.752Z,29.10
2022-08-21T11:51:23.751Z,29.20
2022-08-21T11:54:22.697Z,29.40
2022-08-21T11:57:02.367Z,29.60
2022-08-21T12:00:10.113Z,29.80
2022-08-21T12:02:54.879Z,29.70
2022-08-21T12:05:36.858Z,29.80
2022-08-21T12:08:34.670Z,29.80
2022-08-21T12:11:28.098Z,29.90
2022-08-21T12:14:06.784Z,30.00
2022-08-21T12:16:42.865Z,30.10
2022-08-21T12:19:21.764Z,30.10
2022-08-21T12:22:07.984Z,30.20
2022-08-21T12:29:33.023Z,30.40
2022-08-21T12:32:28.713Z,30.30
2022-08-21T12:35:36.229Z,30.20
2022-08-21T12:38:16.861Z,29.90
2022-08-21T12:41:04.390Z,29.50
2022-08-21T12:43:43.049Z,29.20
2022-08-21T12:46:32.035Z,29.10
2022-08-21T12:49:26.841Z,29.20
2022-08-21T12:52:02.879Z,29.20
2022-08-21T12:54:43.173Z,29.20
2022-08-21T12:57:25.754Z,28.90
2022-08-21T13:00:01.353Z,28.50
2022-08-21T13:02:40.857Z,28.30
2022-08-21T13:05:17.054Z,28.00
2022-08-21T13:07:50.065Z,27.80
2022-08-21T13:10:26.855Z,27.70
2022-08-21T13:13:16.019Z,27.70
2022-08-21T13:16:06.261Z,27.50
2022-08-21T13:18:57.477Z,27.40
2022-08-21T13:21:39.686Z,27.30
2022-08-21T13:24:41.929Z,27.20
2022-08-21T13:27:23.258Z,27.20
2022-08-21T13:30:08.403Z,27.10
2022-08-21T13:32:45.270Z,27.10
2022-08-21T13:35:46.787Z,27.10
2022-08-21T13:38:26.620Z,27.10
2022-08-21T13:41:29.828Z,27.10
2022-08-21T13:44:29.098Z,27.10
2022-08-21T13:47:05.970Z,27.00
2022-08-21T13:49:43.337Z,27.00
2022-08-21T13:52:25.127Z,26.90
2022-08-21T13:55:13.209Z,26.90
2022-08-21T13:57:46.083Z,26.80
2022-08-21T14:00:29.863Z,26.70
2022-08-21T14:03:07.861Z,26.70
2022-08-21T14:05:47.914Z,26.60
2022-08-21T14:08:36.011Z,26.50
2022-08-21T14:11:13.372Z,26.40
2022-08-21T14:13:57.658Z,26.30
2022-08-21T14:16:43.200Z,26.30
2022-08-21T14:19:25.345Z,26.20
2022-08-21T14:22:02.535Z,26.20
2022-08-21T14:24:40.978Z,26.20
2022-08-21T14:27:18.486Z,26.10
2022-08-21T14:29:51.515Z,26.10
2022-08-21T14:32:30.799Z,26.10
2022-08-21T14:35:06.968Z,26.00
2022-08-21T14:37:43.725Z,26.00
2022-08-21T14:40:18.755Z,26.00
2022-08-21T14:42:54.761Z,26.00
2022-08-21T14:45:31.363Z,26.00
2022-08-21T14:48:12.825Z,26.00
2022-08-21T14:50:47.337Z,26.00
2022-08-21T14:53:22.499Z,26.10
2022-08-21T14:56:09.043Z,26.10
2022-08-21T14:58:49.723Z,26.10
2022-08-21T15:01:29.661Z,26.10
2022-08-21T15:04:11.556Z,26.20
2022-08-21T15:06:51.859Z,26.10
2022-08-21T15:09:34.178Z,26.10
2022-08-21T15:12:13.885Z,26.10
2022-08-21T15:14:48.022Z,26.10
2022-08-21T15:17:21.222Z,26.10
2022-08-21T15:19:54.270Z,26.10
2022-08-21T15:22:27.691Z,26.10
2022-08-21T15:25:02.500Z,26.10
2022-08-21T15:27:36.015Z,26.10
2022-08-21T15:30:09.836Z,26.10
2022-08-21T15:32:42.839Z,26.10
2022-08-21T15:35:15.914Z,26.10
2022-08-21T15:37:48.803Z,26.10
2022-08-21T15:40:22.114Z,26.00
2022-08-21T15:43:00.100Z,26.00
2022-08-21T15:45:34.570Z,26.00
2022-08-21T15:48:08.043Z,25.90
2022-08-21T15:50:41.369Z,25.90
2022-08-21T15:53:15.670Z,25.90
2022-08-21T15:55:56.892Z,25.90
2022-08-21T15:58:38.271Z,25.80
2022-08-21T16:01:20.264Z,25.80
2022-08-21T16:04:08.770Z,25.70
2022-08-21T16:06:59.254Z,25.70
2022-08-21T16:09:42.148Z,25.70
2022-08-21T16:12:29.950Z,25.70
2022-08-21T16:15:10.869Z,25.70
2022-08-21T16:17:54.137Z,25.60
2022-08-21T16:20:29.501Z,25.60
2022-08-21T16:23:02.825Z,25.60
2022-08-21T16:25:38.146Z,25.50
2022-08-21T16:28:16.438Z,25.40
2022-08-21T16:30:52.287Z,25.40
2022-08-21T16:33:40.487Z,25.40
2022-08-21T16:36:14.674Z,25.30
2022-08-21T16:38:48.423Z,25.20
2022-08-21T16:41:23.225Z,25.10
2022-08-21T16:43:56.344Z,25.10
2022-08-21T16:46:36.614Z,25.10
2022-08-21T16:49:10.095Z,25.10
2022-08-21T16:51:43.715Z,25.10
2022-08-21T16:54:17.228Z,25.10
2022-08-21T16:56:51.020Z,25.10
2022-08-21T16:59:27.293Z,25.10
2022-08-21T17:02:00.164Z,25.10
2022-08-21T17:04:33.552Z,25.00
2022-08-21T17:07:06.396Z,25.00
2022-08-21T17:09:39.823Z,24.90
2022-08-21T17:12:12.876Z,24.90
2022-08-21T17:14:46.109Z,24.80
2022-08-21T17:17:19.269Z,24.80
2022-08-21T17:19:52.245Z,24.70
2022-08-21T17:22:25.194Z,24.70
2022-08-21T17:24:58.244Z,24.70
2022-08-21T17:27:31.083Z,24.60
2022-08-21T17:30:05.890Z,24.60
2022-08-21T17:32:39.486Z,24.50
2022-08-21T17:35:14.303Z,24.50
2022-08-21T17:37:47.741Z,24.50
2022-08-21T17:40:20.828Z,24.50
2022-08-21T17:42:53.706Z,24.40
2022-08-21T17:45:27.450Z,24.40
2022-08-21T17:48:00.352Z,24.40
2022-08-21T17:50:33.780Z,24.30
2022-08-21T17:53:06.712Z,24.20
2022-08-21T17:55:41.592Z,24.20
2022-08-21T17:58:15.388Z,24.10
2022-08-21T18:00:49.437Z,24.10
2022-08-21T18:03:23.298Z,24.10
2022-08-21T18:05:57.127Z,24.00
2022-08-21T18:08:31.987Z,24.00
2022-08-21T18:11:05.811Z,23.90
2022-08-21T18:13:43.454Z,23.90
2022-08-21T18:16:19.591Z,23.80
2022-08-21T18:18:52.953Z,23.80
2022-08-21T18:21:26.207Z,23.80
2022-08-21T18:23:59.403Z,23.70
2022-08-21T18:26:41.820Z,23.60
2022-08-21T18:29:19.454Z,23.60
2022-08-21T18:31:56.140Z,23.60
2022-08-21T18:34:50.169Z,23.60
2022-08-21T18:37:26.334Z,23.60
2022-08-21T18:39:59.764Z,23.50
2022-08-21T18:42:55.015Z,23.40
2022-08-21T18:45:29.119Z,23.40
2022-08-21T18:48:03.732Z,23.40
2022-08-21T18:50:38.966Z,23.40
2022-08-21T18:56:08.290Z,23.30
2022-08-21T18:58:48.882Z,23.30
2022-08-21T19:01:22.306Z,23.20
2022-08-21T19:04:07.521Z,23.20
2022-08-21T19:06:45.479Z,23.20
2022-08-21T19:09:20.363Z,23.20
2022-08-21T19:11:55.456Z,23.10
2022-08-21T19:14:40.405Z,23.10
2022-08-21T19:17:19.927Z,23.10
2022-08-21T19:20:25.696Z,23.00
2022-08-21T19:23:13.891Z,23.00
2022-08-21T19:25:59.879Z,22.90
2022-08-21T19:28:48.701Z,22.90
2022-08-21T19:31:35.380Z,22.90
2022-08-21T19:34:27.695Z,22.80
2022-08-21T19:37:02.911Z,22.70
2022-08-21T19:39:41.367Z,22.70
2022-08-21T19:42:53.295Z,22.70
2022-08-21T19:45:28.826Z,22.70
2022-08-21T19:48:02.514Z,22.70
2022-08-21T19:50:37.038Z,22.60
2022-08-21T19:53:12.239Z,22.60
2022-08-21T19:55:48.288Z,22.60
2022-08-21T19:58:37.846Z,22.60
2022-08-21T20:01:16.609Z,22.60
2022-08-21T20:03:54.783Z,22.60
2022-08-21T20:06:31.011Z,22.50
2022-08-21T20:09:10.983Z,22.50
2022-08-21T20:11:54.193Z,22.50
2022-08-21T20:14:31.589Z,22.40
2022-08-21T20:17:10.668Z,22.40
2022-08-21T20:20:09.240Z,22.30
2022-08-21T20:22:45.123Z,22.30
2022-08-21T20:25:18.026Z,22.30
2022-08-21T20:27:54.348Z,22.30
2022-08-21T20:30:28.139Z,22.20
2022-08-21T20:33:01.275Z,22.20
2022-08-21T20:35:35.237Z,22.10
2022-08-21T20:38:08.148Z,22.10
2022-08-21T20:40:43.667Z,22.00
2022-08-21T20:43:20.335Z,22.00
2022-08-21T20:45:53.622Z,21.90
2022-08-21T20:48:49.581Z,21.90
2022-08-21T20:51:30.200Z,21.90
2022-08-21T20:54:32.025Z,21.80
2022-08-21T20:57:29.280Z,21.80
2022-08-21T21:00:09.141Z,21.70
2022-08-21T21:03:30.168Z,21.80
2022-08-21T21:06:09.242Z,21.70
2022-08-21T21:08:50.110Z,21.70
2022-08-21T21:11:38.299Z,21.70
2022-08-21T21:14:16.881Z,21.70
2022-08-21T21:16:58.716Z,21.70
2022-08-21T21:19:47.866Z,21.70
2022-08-21T21:22:40.118Z,21.70
2022-08-21T21:25:39.945Z,21.70
2022-08-21T21:28:21.718Z,21.70
2022-08-21T21:30:57.873Z,21.70
2022-08-21T21:33:31.030Z,21.60
2022-08-21T21:36:51.438Z,21.60
2022-08-21T21:39:50.333Z,21.50
2022-08-21T21:42:32.917Z,21.50
2022-08-21T21:45:13.851Z,21.50
2022-08-21T21:48:21.349Z,21.50
2022-08-21T21:51:36.658Z,21.50
2022-08-21T21:54:40.890Z,21.40
2022-08-21T21:57:46.945Z,21.40
2022-08-21T22:00:28.250Z,21.40
2022-08-21T22:03:29.225Z,21.30
2022-08-21T22:06:24.024Z,21.30
2022-08-21T22:09:29.908Z,21.30
2022-08-21T22:12:24.059Z,21.20
2022-08-21T22:14:57.411Z,21.10
2022-08-21T22:18:04.499Z,21.10
2022-08-21T22:21:15.288Z,21.10
2022-08-21T22:23:50.997Z,21.00
2022-08-21T22:26:38.875Z,21.00
2022-08-21T22:29:20.402Z,21.00
2022-08-21T22:32:08.403Z,21.00
2022-08-21T22:34:42.265Z,20.90
2022-08-21T22:37:16.972Z,20.90
2022-08-21T22:39:54.525Z,20.90
2022-08-21T22:42:27.985Z,20.90
2022-08-21T22:45:12.090Z,20.90
2022-08-21T22:47:48.343Z,20.90
2022-08-21T22:50:24.805Z,20.90
2022-08-21T22:53:06.667Z,21.00
2022-08-21T22:55:52.302Z,21.00
2022-08-21T22:58:34.799Z,21.00
2022-08-21T23:01:27.452Z,21.00
2022-08-21T23:04:22.024Z,20.90
2022-08-21T23:07:07.682Z,20.90
2022-08-21T23:09:50.126Z,20.80
2022-08-21T23:12:43.735Z,20.80
2022-08-21T23:15:21.770Z,20.80
2022-08-21T23:18:12.248Z,20.80
2022-08-21T23:21:02.684Z,20.80
2022-08-21T23:23:53.529Z,20.70
2022-08-21T23:26:55.424Z,20.70
2022-08-21T23:29:49.028Z,20.70
2022-08-21T23:32:47.124Z,20.70
2022-08-21T23:35:59.015Z,20.60
2022-08-21T23:39:05.218Z,20.50
2022-08-21T23:41:52.390Z,20.50
2022-08-21T23:44:41.639Z,20.40
2022-08-21T23:47:32.390Z,20.40
2022-08-21T23:50:40.019Z,20.40
2022-08-21T23:53:28.993Z,20.40
2022-08-21T23:56:27.099Z,20.30
2022-08-21T23:59:18.663Z,20.30
